createdAt,value
2018-12-29T00:00:34.680Z,29.67
2018-12-29T00:03:03.131Z,30.60
2018-12-29T00:05:31.556Z,26.33
2018-12-29T00:07:59.987Z,28.77
2018-12-29T00:10:28.440Z,36.43
2018-12-29T00:12:56.883Z,36.50
2018-12-29T00:15:25.320Z,31.03
2018-12-29T00:17:53.795Z,28.23
2018-12-29T00:20:22.337Z,32.87
2018-12-29T00:22:50.760Z,32.00
2018-12-29T00:25:19.208Z,32.63
2018-12-29T00:27:47.653Z,31.67
2018-12-29T00:30:16.088Z,30.77
2018-12-29T00:32:44.546Z,32.97
2018-12-29T00:35:12.976Z,32.57
2018-12-29T00:37:41.394Z,31.77
2018-12-29T00:40:09.843Z,29.77
2018-12-29T00:42:38.335Z,30.70
2018-12-29T00:45:06.844Z,32.17
2018-12-29T00:47:35.376Z,26.17
2018-12-29T00:50:04.742Z,31.77
2018-12-29T00:52:33.172Z,26.10
2018-12-29T00:55:01.628Z,26.67
2018-12-29T00:57:30.061Z,30.23
2018-12-29T00:59:58.492Z,28.10
2018-12-29T01:02:26.944Z,26.93
2018-12-29T01:04:55.449Z,36.30
2018-12-29T01:07:23.889Z,34.63
2018-12-29T01:09:52.363Z,33.57
2018-12-29T01:12:20.798Z,35.47
2018-12-29T01:14:49.352Z,34.50
2018-12-29T01:17:17.805Z,30.80
2018-12-29T01:19:46.238Z,37.80
2018-12-29T01:22:14.672Z,30.00
2018-12-29T01:24:44.046Z,34.03
2018-12-29T01:27:12.480Z,36.87
2018-12-29T01:29:40.916Z,35.03
2018-12-29T01:32:09.389Z,32.83
2018-12-29T01:34:37.816Z,30.87
2018-12-29T01:37:06.249Z,34.90
2018-12-29T01:39:34.697Z,32.10
2018-12-29T01:42:03.124Z,39.67
2018-12-29T01:44:31.553Z,35.20
2018-12-29T01:47:00.004Z,34.40
2018-12-29T01:49:28.436Z,36.07
2018-12-29T01:51:56.859Z,33.30
2018-12-29T01:54:25.384Z,35.27
2018-12-29T01:56:53.817Z,32.03
2018-12-29T01:59:22.239Z,29.97
2018-12-29T02:01:50.694Z,37.00
2018-12-29T02:04:19.393Z,38.13
2018-12-29T02:06:47.826Z,38.60
2018-12-29T02:09:16.355Z,36.97
2018-12-29T02:11:44.806Z,38.57
2018-12-29T02:14:13.233Z,37.37
2018-12-29T02:16:41.718Z,39.23
2018-12-29T02:19:10.144Z,40.67
2018-12-29T02:21:38.640Z,46.33
2018-12-29T02:24:07.088Z,33.20
2018-12-29T02:26:35.516Z,33.70
2018-12-29T02:29:04.008Z,48.27
2018-12-29T02:31:32.464Z,37.40
2018-12-29T02:34:00.900Z,35.30
2018-12-29T02:36:29.331Z,40.27
2018-12-29T02:38:57.789Z,37.47
2018-12-29T02:41:26.223Z,32.63
2018-12-29T02:43:54.656Z,37.53
2018-12-29T02:46:23.110Z,39.27
2018-12-29T02:48:51.534Z,36.83
2018-12-29T02:51:19.983Z,45.13
2018-12-29T02:53:48.423Z,39.20
2018-12-29T02:56:16.875Z,38.23
2018-12-29T02:58:45.328Z,42.43
2018-12-29T03:01:13.826Z,40.20
2018-12-29T03:03:42.394Z,38.70
2018-12-29T03:06:10.897Z,38.23
2018-12-29T03:08:39.403Z,39.87
2018-12-29T03:11:07.843Z,29.50
2018-12-29T03:13:36.747Z,44.53
2018-12-29T03:16:05.226Z,39.37
2018-12-29T03:18:33.660Z,39.53
2018-12-29T03:21:02.100Z,36.87
2018-12-29T03:23:30.662Z,46.10
2018-12-29T03:25:59.092Z,44.20
2018-12-29T03:28:27.549Z,35.40
2018-12-29T03:30:55.985Z,41.07
2018-12-29T03:33:24.410Z,39.50
2018-12-29T03:35:52.859Z,44.27
2018-12-29T03:38:21.292Z,43.27
2018-12-29T03:40:49.757Z,43.27
2018-12-29T03:43:18.272Z,44.43
2018-12-29T03:45:49.349Z,38.23
2018-12-29T03:48:16.869Z,42.43
2018-12-29T03:50:45.300Z,49.53
2018-12-29T03:53:13.770Z,43.90
2018-12-29T03:55:42.204Z,33.90
2018-12-29T03:58:10.638Z,39.63
2018-12-29T04:00:39.081Z,39.37
2018-12-29T04:03:07.517Z,36.00
2018-12-29T04:05:35.966Z,42.90
2018-12-29T04:08:04.400Z,38.87
2018-12-29T04:10:32.833Z,45.83
2018-12-29T04:13:01.271Z,46.47
2018-12-29T04:15:29.769Z,45.50
2018-12-29T04:17:58.215Z,39.87
2018-12-29T04:20:26.679Z,40.47
2018-12-29T04:22:55.110Z,39.03
2018-12-29T04:25:24.134Z,43.33
2018-12-29T04:27:52.566Z,49.43
2018-12-29T04:30:21.016Z,43.17
2018-12-29T04:32:49.472Z,46.77
2018-12-29T04:35:17.912Z,43.73
2018-12-29T04:37:46.371Z,39.60
2018-12-29T04:40:14.865Z,44.53
2018-12-29T04:42:43.344Z,46.03
2018-12-29T04:45:11.774Z,40.97
2018-12-29T04:47:40.196Z,47.60
2018-12-29T04:50:08.724Z,47.97
2018-12-29T04:52:37.156Z,49.30
2018-12-29T04:55:05.773Z,43.67
2018-12-29T04:57:34.218Z,42.83
2018-12-29T05:00:02.653Z,44.13
2018-12-29T05:02:31.104Z,50.57
2018-12-29T05:04:59.600Z,52.67
2018-12-29T05:07:28.079Z,40.33
2018-12-29T05:09:56.552Z,54.53
2018-12-29T05:12:24.992Z,59.73
2018-12-29T05:14:53.446Z,53.50
2018-12-29T05:17:21.877Z,44.43
2018-12-29T05:19:50.332Z,51.90
2018-12-29T05:22:18.777Z,55.50
2018-12-29T05:24:47.200Z,64.33
2018-12-29T05:27:15.644Z,59.67
2018-12-29T05:29:44.075Z,53.17
2018-12-29T05:32:12.528Z,57.47
2018-12-29T05:34:40.952Z,55.20
2018-12-29T05:37:09.385Z,48.73
2018-12-29T05:39:37.833Z,58.60
2018-12-29T05:42:06.276Z,52.17
2018-12-29T05:44:34.748Z,51.73
2018-12-29T05:47:03.187Z,59.00
2018-12-29T05:49:31.704Z,50.40
2018-12-29T05:52:00.215Z,49.93
2018-12-29T05:54:28.708Z,49.47
2018-12-29T05:56:57.161Z,41.80
2018-12-29T05:59:25.587Z,50.77
2018-12-29T06:01:54.016Z,53.60
2018-12-29T06:04:22.461Z,50.07
2018-12-29T06:06:50.888Z,47.83
2018-12-29T06:09:19.352Z,48.60
2018-12-29T06:11:47.776Z,55.63
2018-12-29T06:14:16.212Z,60.57
2018-12-29T06:16:44.657Z,58.53
2018-12-29T06:19:13.088Z,52.07
2018-12-29T06:21:41.539Z,52.43
2018-12-29T06:24:09.964Z,52.20
2018-12-29T06:26:39.934Z,46.37
2018-12-29T06:29:08.373Z,49.33
2018-12-29T06:31:36.807Z,51.93
2018-12-29T06:34:05.259Z,39.73
2018-12-29T06:36:33.756Z,43.17
2018-12-29T06:39:02.175Z,55.43
2018-12-29T06:41:30.627Z,50.47
2018-12-29T06:43:59.058Z,51.80
2018-12-29T06:46:34.609Z,52.00
2018-12-29T06:48:57.672Z,47.93
2018-12-29T06:51:26.099Z,54.43
2018-12-29T06:53:54.544Z,52.90
2018-12-29T06:56:22.986Z,49.50
2018-12-29T06:58:51.444Z,56.97
2018-12-29T07:01:19.877Z,57.97
2018-12-29T07:03:48.326Z,48.63
2018-12-29T07:06:16.832Z,53.83
2018-12-29T07:08:45.268Z,48.43
2018-12-29T07:11:13.721Z,47.53
2018-12-29T07:13:42.151Z,46.33
2018-12-29T07:16:10.585Z,58.43
2018-12-29T07:18:39.030Z,53.27
2018-12-29T07:21:07.461Z,53.30
2018-12-29T07:23:35.924Z,46.13
2018-12-29T07:26:04.361Z,58.17
2018-12-29T07:28:32.798Z,43.17
2018-12-29T07:31:01.320Z,50.60
2018-12-29T07:33:29.920Z,48.67
2018-12-29T07:35:58.373Z,57.17
2018-12-29T07:38:26.798Z,45.40
2018-12-29T07:40:55.227Z,58.53
2018-12-29T07:43:23.679Z,56.70
2018-12-29T07:45:52.142Z,49.77
2018-12-29T07:48:20.601Z,55.97
2018-12-29T07:50:49.121Z,50.77
2018-12-29T07:53:18.660Z,49.53
2018-12-29T07:55:47.122Z,58.43
2018-12-29T07:58:15.547Z,51.00
2018-12-29T08:00:44.000Z,50.70
2018-12-29T08:03:12.541Z,58.30
2018-12-29T08:05:41.080Z,54.70
2018-12-29T08:08:09.527Z,47.03
2018-12-29T08:10:38.845Z,46.90
2018-12-29T08:13:07.388Z,52.43
2018-12-29T08:15:35.973Z,55.03
2018-12-29T08:18:04.663Z,50.00
2018-12-29T08:20:33.124Z,49.03
2018-12-29T08:23:01.604Z,46.87
2018-12-29T08:25:30.165Z,51.00
2018-12-29T08:27:58.595Z,50.43
2018-12-29T08:30:27.016Z,49.60
2018-12-29T08:32:55.505Z,45.83
2018-12-29T08:35:23.996Z,42.83
2018-12-29T08:37:52.470Z,46.37
2018-12-29T08:40:21.656Z,51.50
2018-12-29T08:42:50.089Z,45.37
2018-12-29T08:45:18.540Z,39.80
2018-12-29T08:47:46.987Z,42.87
2018-12-29T08:50:15.436Z,33.27
2018-12-29T08:52:43.895Z,47.17
2018-12-29T08:55:12.347Z,44.17
2018-12-29T08:57:40.820Z,42.63
2018-12-29T09:00:09.374Z,49.90
2018-12-29T09:02:37.824Z,44.47
2018-12-29T09:05:06.250Z,48.60
2018-12-29T09:07:34.675Z,48.23
2018-12-29T09:10:03.120Z,49.40
2018-12-29T09:12:31.564Z,45.27
2018-12-29T09:15:00.090Z,47.90
2018-12-29T09:17:28.592Z,42.07
2018-12-29T09:19:57.037Z,40.33
2018-12-29T09:22:25.564Z,45.20
2018-12-29T09:24:53.988Z,46.63
2018-12-29T09:27:22.442Z,43.57
2018-12-29T09:29:50.864Z,42.40
2018-12-29T09:32:19.374Z,37.90
2018-12-29T09:34:47.892Z,41.13
2018-12-29T09:37:16.424Z,41.00
2018-12-29T09:39:44.907Z,38.37
2018-12-29T09:42:14.951Z,45.43
2018-12-29T09:44:43.465Z,42.73
2018-12-29T09:47:19.242Z,46.03
2018-12-29T09:49:42.118Z,45.63
2018-12-29T09:52:10.645Z,42.40
2018-12-29T09:54:39.157Z,36.30
2018-12-29T09:57:07.585Z,47.03
2018-12-29T09:59:36.072Z,45.50
2018-12-29T10:02:04.547Z,39.20
2018-12-29T10:04:33.000Z,46.23
2018-12-29T10:07:01.426Z,45.00
2018-12-29T10:09:29.852Z,48.03
2018-12-29T10:11:58.292Z,43.00
2018-12-29T10:14:26.725Z,41.43
2018-12-29T10:16:55.192Z,40.57
2018-12-29T10:19:23.624Z,44.30
2018-12-29T10:21:52.127Z,38.63
2018-12-29T10:24:20.577Z,42.40
2018-12-29T10:26:49.500Z,41.50
2018-12-29T10:29:17.961Z,37.33
2018-12-29T10:31:46.396Z,45.23
2018-12-29T10:34:14.821Z,44.67
2018-12-29T10:36:43.292Z,38.80
2018-12-29T10:39:11.739Z,34.60
2018-12-29T10:41:40.180Z,41.33
2018-12-29T10:44:08.616Z,37.17
2018-12-29T10:46:37.552Z,37.53
2018-12-29T10:49:05.999Z,40.10
2018-12-29T10:51:34.424Z,46.20
2018-12-29T10:54:02.892Z,42.67
2018-12-29T10:56:31.320Z,38.50
2018-12-29T10:58:59.752Z,37.33
2018-12-29T11:01:28.197Z,34.87
2018-12-29T11:03:56.624Z,40.47
2018-12-29T11:06:25.082Z,38.20
2018-12-29T11:08:53.530Z,36.23
2018-12-29T11:11:22.017Z,40.07
2018-12-29T11:13:50.458Z,38.20
2018-12-29T11:16:18.960Z,33.50
2018-12-29T11:18:48.379Z,37.63
2018-12-29T11:21:17.031Z,45.60
2018-12-29T11:23:45.464Z,37.90
2018-12-29T11:26:13.899Z,39.63
2018-12-29T11:28:42.340Z,36.67
2018-12-29T11:31:10.793Z,39.40
2018-12-29T11:33:39.222Z,43.33
2018-12-29T11:36:07.657Z,37.67
2018-12-29T11:38:36.112Z,44.83
2018-12-29T11:41:04.594Z,41.40
2018-12-29T11:43:33.077Z,38.77
2018-12-29T11:46:01.566Z,35.50
2018-12-29T11:48:30.008Z,42.13
2018-12-29T11:50:58.661Z,37.73
2018-12-29T11:53:27.660Z,38.70
2018-12-29T11:55:56.195Z,42.33
2018-12-29T11:58:24.742Z,36.57
2018-12-29T12:00:53.315Z,40.90
2018-12-29T12:03:21.898Z,39.73
2018-12-29T12:05:50.703Z,40.20
2018-12-29T12:08:19.156Z,34.13
2018-12-29T12:10:47.724Z,36.83
2018-12-29T12:13:16.241Z,39.47
2018-12-29T12:15:44.683Z,37.60
2018-12-29T12:18:13.421Z,37.13
2018-12-29T12:20:41.952Z,35.23
2018-12-29T12:23:10.398Z,35.37
2018-12-29T12:25:38.898Z,38.33
2018-12-29T12:28:07.785Z,36.50
2018-12-29T12:30:36.252Z,38.70
2018-12-29T12:33:04.732Z,36.43
2018-12-29T12:35:33.355Z,38.03
2018-12-29T12:38:02.154Z,37.67
2018-12-29T12:40:30.681Z,37.53
2018-12-29T12:42:59.255Z,34.43
2018-12-29T12:45:27.785Z,39.27
2018-12-29T12:47:56.354Z,36.93
2018-12-29T12:50:24.967Z,34.53
2018-12-29T12:52:53.501Z,37.17
2018-12-29T12:55:21.948Z,38.87
2018-12-29T12:57:50.577Z,37.10
2018-12-29T13:00:19.285Z,40.33
2018-12-29T13:02:47.713Z,41.80
2018-12-29T13:05:16.304Z,41.63
2018-12-29T13:07:44.758Z,41.17
2018-12-29T13:10:13.288Z,37.30
2018-12-29T13:12:41.804Z,37.73
2018-12-29T13:15:10.269Z,41.57
2018-12-29T13:17:38.763Z,38.10
2018-12-29T13:20:07.264Z,36.33
2018-12-29T13:22:35.784Z,40.23
2018-12-29T13:25:04.429Z,36.60
2018-12-29T13:27:32.934Z,40.77
2018-12-29T13:30:01.382Z,38.10
2018-12-29T13:32:29.888Z,40.50
2018-12-29T13:34:58.400Z,37.67
2018-12-29T13:37:26.847Z,41.50
2018-12-29T13:39:55.280Z,41.37
2018-12-29T13:42:23.712Z,34.50
2018-12-29T13:44:52.154Z,37.03
2018-12-29T13:47:20.660Z,37.97
2018-12-29T13:49:49.095Z,34.77
2018-12-29T13:52:17.623Z,33.90
2018-12-29T13:54:46.199Z,36.30
2018-12-29T13:57:14.752Z,37.27
2018-12-29T13:59:43.227Z,37.90
2018-12-29T14:02:11.768Z,39.43
2018-12-29T14:04:40.283Z,39.20
2018-12-29T14:07:08.839Z,39.43
2018-12-29T14:09:37.322Z,39.20
2018-12-29T14:12:05.844Z,38.27
2018-12-29T14:14:34.339Z,33.03
2018-12-29T14:17:02.839Z,44.63
2018-12-29T14:19:31.368Z,40.67
2018-12-29T14:21:59.882Z,42.43
2018-12-29T14:24:29.114Z,40.67
2018-12-29T14:26:57.724Z,36.57
2018-12-29T14:29:26.238Z,37.03
2018-12-29T14:31:54.760Z,39.43
2018-12-29T14:34:23.197Z,37.27
2018-12-29T14:36:52.131Z,43.03
2018-12-29T14:39:20.633Z,37.57
2018-12-29T14:41:50.548Z,39.03
2018-12-29T14:44:19.293Z,39.57
2018-12-29T14:46:47.843Z,41.47
2018-12-29T14:49:16.757Z,42.10
2018-12-29T14:51:45.271Z,43.70
2018-12-29T14:54:13.782Z,41.43
2018-12-29T14:56:42.400Z,43.37
2018-12-29T14:59:10.899Z,40.13
2018-12-29T15:01:39.655Z,32.83
2018-12-29T15:04:08.133Z,39.23
2018-12-29T15:06:36.639Z,38.30
2018-12-29T15:09:06.429Z,38.70
2018-12-29T15:11:35.009Z,45.63
2018-12-29T15:14:03.544Z,37.10
2018-12-29T15:16:32.360Z,37.87
2018-12-29T15:19:00.869Z,35.93
2018-12-29T15:21:29.700Z,37.53
2018-12-29T15:23:58.200Z,35.87
2018-12-29T15:26:26.728Z,40.87
2018-12-29T15:28:55.263Z,39.20
2018-12-29T15:31:23.769Z,35.77
2018-12-29T15:33:52.279Z,36.30
2018-12-29T15:36:20.793Z,39.53
2018-12-29T15:38:49.338Z,38.07
2018-12-29T15:41:17.836Z,42.10
2018-12-29T15:43:46.661Z,37.60
2018-12-29T15:46:15.112Z,37.13
2018-12-29T15:48:50.956Z,36.13
2018-12-29T15:51:13.808Z,38.53
2018-12-29T15:53:42.241Z,42.63
2018-12-29T15:56:10.747Z,40.40
2018-12-29T15:58:39.264Z,37.13
2018-12-29T16:01:08.171Z,37.80
2018-12-29T16:03:36.699Z,35.57
2018-12-29T16:06:05.204Z,34.50
2018-12-29T16:08:33.713Z,42.10
2018-12-29T16:11:02.243Z,36.53
2018-12-29T16:13:30.740Z,37.93
2018-12-29T16:15:59.229Z,41.00
2018-12-29T16:18:28.047Z,44.50
2018-12-29T16:20:56.555Z,34.90
2018-12-29T16:23:26.182Z,40.10
2018-12-29T16:25:54.780Z,41.50
2018-12-29T16:28:23.315Z,38.03
2018-12-29T16:30:51.799Z,36.73
2018-12-29T16:33:20.319Z,37.60
2018-12-29T16:35:48.786Z,33.10
2018-12-29T16:38:17.298Z,35.73
2018-12-29T16:40:45.832Z,38.70
2018-12-29T16:43:14.340Z,37.23
2018-12-29T16:45:42.859Z,39.17
2018-12-29T16:48:11.483Z,43.57
2018-12-29T16:50:39.994Z,45.70
2018-12-29T16:53:08.512Z,37.47
2018-12-29T16:55:37.021Z,41.93
2018-12-29T16:58:05.862Z,44.47
2018-12-29T17:00:34.348Z,41.50
2018-12-29T17:03:02.849Z,45.03
2018-12-29T17:05:31.377Z,53.07
2018-12-29T17:08:00.290Z,48.00
2018-12-29T17:10:28.807Z,49.07
2018-12-29T17:12:57.324Z,48.17
2018-12-29T17:15:25.832Z,45.20
2018-12-29T17:17:54.368Z,47.03
2018-12-29T17:20:22.869Z,49.43
2018-12-29T17:22:51.389Z,52.67
2018-12-29T17:25:19.924Z,47.13
2018-12-29T17:27:48.440Z,48.50
2018-12-29T17:30:16.989Z,43.70
2018-12-29T17:32:45.938Z,51.43
2018-12-29T17:35:14.442Z,53.63
2018-12-29T17:37:42.964Z,51.77
2018-12-29T17:40:11.396Z,63.27
2018-12-29T17:42:39.924Z,55.40
2018-12-29T17:45:08.636Z,62.77
2018-12-29T17:47:37.132Z,62.63
2018-12-29T17:50:06.608Z,55.03
2018-12-29T17:52:35.100Z,59.73
2018-12-29T17:55:04.195Z,59.30
2018-12-29T17:57:32.701Z,59.87
2018-12-29T18:00:01.201Z,68.43
2018-12-29T18:02:29.721Z,63.20
2018-12-29T18:04:58.234Z,54.30
2018-12-29T18:07:26.962Z,59.40
2018-12-29T18:09:57.294Z,56.20
2018-12-29T18:12:25.632Z,51.30
2018-12-29T18:14:54.171Z,64.20
2018-12-29T18:17:22.677Z,59.60
2018-12-29T18:19:51.214Z,59.77
2018-12-29T18:22:19.740Z,65.10
2018-12-29T18:24:48.658Z,59.83
2018-12-29T18:27:18.194Z,56.43
2018-12-29T18:29:46.926Z,64.30
2018-12-29T18:32:15.432Z,59.47
2018-12-29T18:34:43.943Z,62.87
2018-12-29T18:37:12.740Z,61.67
2018-12-29T18:39:41.270Z,61.73
2018-12-29T18:42:09.776Z,60.57
2018-12-29T18:44:38.321Z,54.80
2018-12-29T18:47:06.778Z,51.70
2018-12-29T18:49:38.701Z,58.13
2018-12-29T18:52:05.652Z,57.33
2018-12-29T18:54:34.164Z,63.57
2018-12-29T18:57:02.697Z,55.60
2018-12-29T18:59:31.210Z,57.67
2018-12-29T19:01:59.733Z,57.03
2018-12-29T19:04:28.242Z,58.70
2018-12-29T19:06:56.747Z,57.30
2018-12-29T19:09:25.265Z,56.00
2018-12-29T19:11:53.784Z,58.50
2018-12-29T19:14:22.693Z,58.73
2018-12-29T19:16:51.632Z,59.90
2018-12-29T19:19:20.554Z,58.17
2018-12-29T19:21:49.091Z,61.67
2018-12-29T19:24:17.631Z,62.23
2018-12-29T19:26:46.133Z,53.47
2018-12-29T19:29:14.657Z,59.70
2018-12-29T19:31:44.663Z,59.97
2018-12-29T19:34:13.351Z,64.93
2018-12-29T19:36:41.781Z,60.60
2018-12-29T19:39:10.694Z,62.20
2018-12-29T19:41:46.366Z,60.07
2018-12-29T19:44:09.368Z,70.87
2018-12-29T19:46:38.093Z,68.13
2018-12-29T19:49:06.519Z,58.23
2018-12-29T19:51:35.028Z,55.23
2018-12-29T19:54:03.477Z,57.90
2018-12-29T19:56:31.904Z,59.63
2018-12-29T19:59:00.834Z,60.73
2018-12-29T20:01:29.342Z,48.37
2018-12-29T20:03:58.235Z,58.93
2018-12-29T20:06:26.722Z,47.63
2018-12-29T20:08:55.291Z,55.80
2018-12-29T20:11:23.767Z,55.30
2018-12-29T20:13:52.270Z,54.10
2018-12-29T20:16:20.771Z,57.53
2018-12-29T20:18:49.247Z,56.50
2018-12-29T20:21:17.677Z,59.77
2018-12-29T20:23:46.167Z,50.83
2018-12-29T20:26:14.630Z,47.73
2018-12-29T20:28:43.141Z,59.07
2018-12-29T20:31:11.961Z,62.10
2018-12-29T20:33:40.462Z,57.80
2018-12-29T20:36:08.985Z,52.67
2018-12-29T20:38:37.426Z,52.37
2018-12-29T20:41:05.949Z,53.73
2018-12-29T20:43:34.772Z,49.43
2018-12-29T20:46:03.282Z,51.40
2018-12-29T20:48:31.803Z,48.63
2018-12-29T20:51:00.376Z,54.43
2018-12-29T20:53:28.886Z,45.13
2018-12-29T20:55:57.448Z,56.87
2018-12-29T20:58:25.914Z,48.53
2018-12-29T21:00:54.451Z,48.00
2018-12-29T21:03:22.907Z,48.57
2018-12-29T21:05:51.499Z,50.23
2018-12-29T21:08:20.022Z,49.67
2018-12-29T21:10:48.641Z,52.70
2018-12-29T21:13:17.096Z,48.80
2018-12-29T21:15:45.523Z,48.00
2018-12-29T21:18:14.029Z,49.67
2018-12-29T21:20:42.549Z,47.77
2018-12-29T21:23:11.053Z,45.37
2018-12-29T21:25:39.783Z,45.10
2018-12-29T21:28:08.294Z,51.10
2018-12-29T21:30:36.801Z,50.63
2018-12-29T21:33:05.319Z,53.33
2018-12-29T21:35:33.840Z,51.23
2018-12-29T21:38:02.369Z,45.20
2018-12-29T21:40:30.877Z,42.30
2018-12-29T21:42:59.316Z,51.77
2018-12-29T21:45:27.844Z,44.77
2018-12-29T21:47:56.285Z,49.13
2018-12-29T21:50:25.919Z,53.37
2018-12-29T21:52:54.965Z,43.57
2018-12-29T21:55:23.492Z,41.90
2018-12-29T21:57:52.012Z,48.47
2018-12-29T22:00:20.515Z,39.50
2018-12-29T22:02:49.056Z,40.33
2018-12-29T22:05:17.560Z,37.57
2018-12-29T22:07:46.071Z,39.20
2018-12-29T22:10:14.596Z,37.57
2018-12-29T22:12:43.107Z,32.73
2018-12-29T22:15:11.640Z,38.33
2018-12-29T22:17:40.143Z,32.43
2018-12-29T22:20:09.094Z,39.30
2018-12-29T22:22:37.711Z,34.87
2018-12-29T22:25:06.397Z,31.90
2018-12-29T22:27:34.947Z,32.03
2018-12-29T22:30:03.726Z,33.93
2018-12-29T22:32:32.318Z,30.67
2018-12-29T22:35:00.862Z,32.00
2018-12-29T22:37:29.349Z,35.20
2018-12-29T22:39:57.878Z,34.30
2018-12-29T22:42:26.384Z,34.47
2018-12-29T22:44:54.815Z,36.13
2018-12-29T22:47:23.744Z,34.17
2018-12-29T22:49:52.248Z,33.93
2018-12-29T22:52:20.720Z,30.40
2018-12-29T22:54:49.425Z,33.33
2018-12-29T22:57:17.920Z,36.50
2018-12-29T22:59:46.444Z,35.23
2018-12-29T23:02:14.952Z,39.07
2018-12-29T23:04:43.469Z,37.80
2018-12-29T23:07:12.283Z,39.03
2018-12-29T23:09:40.972Z,36.33
2018-12-29T23:12:09.497Z,33.97
2018-12-29T23:14:38.016Z,33.87
2018-12-29T23:17:06.852Z,32.57
2018-12-29T23:19:35.354Z,40.50
2018-12-29T23:22:04.337Z,36.50
2018-12-29T23:24:32.860Z,38.80
2018-12-29T23:27:01.384Z,38.20
2018-12-29T23:29:29.987Z,40.03
2018-12-29T23:31:58.533Z,38.20
2018-12-29T23:34:27.435Z,40.23
2018-12-29T23:36:55.974Z,39.20
2018-12-29T23:39:24.548Z,34.73
2018-12-29T23:41:53.477Z,38.83
2018-12-29T23:44:21.980Z,42.47
2018-12-29T23:46:50.485Z,43.33
2018-12-29T23:49:19.140Z,42.23
2018-12-29T23:51:47.626Z,40.83
2018-12-29T23:54:16.168Z,40.30
2018-12-29T23:56:44.981Z,34.00
2018-12-29T23:59:13.562Z,43.70
